Alboran — EAWK — position and weather

sailwx.info

Track history (hours):
 
Tides and Currents Weather Stations Pressure Air Temp Water Temp Dewpoint Dewpoint Depression Visibility Wind Speed Wind Dir Waves Ship Positions

Alboran

Last reported at 2017-Oct-19 06:57 UTC. Time now 2017-Nov-24 02:10 UTC.
Position N 28°24' W 016°15'.
Warning: this ship's position is 35 days out of date.

Length 96 m; draft 3.2 m.

Type: High speed craft. MMSI: 224898000.

Date/timePositionNaut miles runAvg speedWind from/ knotsBaromVisibWave heightAir tempDewpointWater temp
2017-Oct-19 06:57N 28°24' W 016°15'4 0.5
2017-Oct-18 21:35N 28°28' W 016°15'0 0.0
2017-Oct-18 21:07N 28°28' W 016°15'0 0.0
2017-Oct-18 18:08N 28°28' W 016°15'0 0.0
2017-Oct-18 17:52N 28°28' W 016°15'0 0.0
2017-Oct-18 16:57N 28°28' W 016°15'0 0.0
2017-Oct-18 16:30N 28°28' W 016°15'0 0.0
2017-Oct-18 15:56N 28°28' W 016°15'0 0.0
2017-Oct-18 15:29N 28°28' W 016°15'0 0.0
2017-Oct-18 14:47N 28°28' W 016°15'0 0.0
2017-Oct-16 15:45N 28°28' W 016°15'0 1.9
2017-Oct-16 15:30N 28°29' W 016°14'5 9.1
2017-Oct-16 15:00N 28°29' W 016°09'1716.8
2017-Oct-16 14:00N 28°40' W 015°55'816.5
2017-Oct-16 13:30N 28°46' W 015°48'816.3
2017-Oct-16 13:00N 28°52' W 015°41'917.4
2017-Oct-16 12:30N 28°58' W 015°34'1122.5
2017-Oct-16 12:00N 29°05' W 015°25'1122.6
2017-Oct-16 11:30N 29°13' W 015°15'1122.3
2017-Oct-16 11:00N 29°21' W 015°06'1122.3
2017-Oct-16 10:30N 29°29' W 014°57'1122.4
2017-Oct-16 10:00N 29°36' W 014°48'1122.3
2017-Oct-16 09:30N 29°43' W 014°38'1122.4
2017-Oct-16 09:00N 29°51' W 014°28'1122.4
2017-Oct-16 08:30N 29°58' W 014°18'1122.2
2017-Oct-16 08:00N 30°05' W 014°08'1122.2
2017-Oct-16 07:30N 30°12' W 013°58'1122.4
2017-Oct-16 07:00N 30°19' W 013°48'1122.3
2017-Oct-16 06:30N 30°26' W 013°38'1121.3
2017-Oct-16 06:00N 30°34' W 013°29'1122.3
2017-Oct-16 05:31N 30°41' W 013°20'1122.6
2017-Oct-16 05:00N 30°48' W 013°10'1222.4
2017-Oct-16 04:29N 30°56' W 012°59'23822.2
2017-Oct-15 17:45N 33°36' W 009°30'922.0
2017-Oct-15 17:20N 33°42' W 009°22'1421.9
2017-Oct-15 16:43N 33°51' W 009°10'521.8
2017-Oct-15 16:30N 33°54' W 009°06'1221.8
2017-Oct-15 15:58N 34°02' W 008°55'1022.0
2017-Oct-15 15:31N 34°09' W 008°46'1522.0
2017-Oct-15 14:51N 34°18' W 008°33'5621.5
2017-Oct-15 12:14N 34°55' W 007°42'522.0
2017-Oct-15 12:00N 34°59' W 007°37'1122.1
2017-Oct-15 11:30N 35°06' W 007°27'1122.2
2017-Oct-15 11:01N 35°14' W 007°18'1122.2
2017-Oct-15 10:30N 35°22' W 007°08'1122.1
2017-Oct-15 09:59N 35°29' W 006°57'1322.2
2017-Oct-15 09:25N 35°37' W 006°45'1722.2
2017-Oct-15 08:40N 35°48' W 006°30'4420.8
2017-Oct-15 06:32N 35°58' W 005°36'022.3
2017-Oct-15 06:30N 35°58' W 005°36'17 0.4
2017-Oct-13 13:17N 36°05' W 005°16'5 4.5
2017-Oct-13 12:13N 36°08' W 005°21'0 0.0
2017-Oct-13 11:41N 36°08' W 005°21'0 0.0
2017-Oct-13 11:18N 36°08' W 005°21'0 0.0
2017-Oct-13 11:00N 36°08' W 005°21'0 0.0
2017-Oct-12 16:48N 36°08' W 005°21'0 0.0
2017-Oct-12 14:00N 36°08' W 005°21'0 0.0
2017-Oct-12 13:29N 36°08' W 005°21'  
Track history (hours):
 
Tides and Currents Weather Stations Pressure Air Temp Water Temp Dewpoint Dewpoint Depression Visibility Wind Speed Wind Dir Waves Ship Positions

Alboran

Last reported at 2017-Oct-19 06:57 UTC. Time now 2017-Nov-24 02:10 UTC.
Position N 28°24' W 016°15'.
Warning: this ship's position is 35 days out of date.

Length 96 m; draft 3.2 m.

Type: High speed craft. MMSI: 224898000.

Date/timePositionNaut miles runAvg speedWind from/ knotsBaromVisibWave heightAir tempDewpointWater temp
2017-Oct-19 06:57N 28°24' W 016°15'4 0.5
2017-Oct-18 21:35N 28°28' W 016°15'0 0.0
2017-Oct-18 21:07N 28°28' W 016°15'0 0.0
2017-Oct-18 18:08N 28°28' W 016°15'0 0.0
2017-Oct-18 17:52N 28°28' W 016°15'0 0.0
2017-Oct-18 16:57N 28°28' W 016°15'0 0.0
2017-Oct-18 16:30N 28°28' W 016°15'0 0.0
2017-Oct-18 15:56N 28°28' W 016°15'0 0.0
2017-Oct-18 15:29N 28°28' W 016°15'0 0.0
2017-Oct-18 14:47N 28°28' W 016°15'0 0.0
2017-Oct-16 15:45N 28°28' W 016°15'0 1.9
2017-Oct-16 15:30N 28°29' W 016°14'5 9.1
2017-Oct-16 15:00N 28°29' W 016°09'1716.8
2017-Oct-16 14:00N 28°40' W 015°55'816.5
2017-Oct-16 13:30N 28°46' W 015°48'816.3
2017-Oct-16 13:00N 28°52' W 015°41'917.4
2017-Oct-16 12:30N 28°58' W 015°34'1122.5
2017-Oct-16 12:00N 29°05' W 015°25'1122.6
2017-Oct-16 11:30N 29°13' W 015°15'1122.3
2017-Oct-16 11:00N 29°21' W 015°06'1122.3
2017-Oct-16 10:30N 29°29' W 014°57'1122.4
2017-Oct-16 10:00N 29°36' W 014°48'1122.3
2017-Oct-16 09:30N 29°43' W 014°38'1122.4
2017-Oct-16 09:00N 29°51' W 014°28'1122.4
2017-Oct-16 08:30N 29°58' W 014°18'1122.2
2017-Oct-16 08:00N 30°05' W 014°08'1122.2
2017-Oct-16 07:30N 30°12' W 013°58'1122.4
2017-Oct-16 07:00N 30°19' W 013°48'1122.3
2017-Oct-16 06:30N 30°26' W 013°38'1121.3
2017-Oct-16 06:00N 30°34' W 013°29'1122.3
2017-Oct-16 05:31N 30°41' W 013°20'1122.6
2017-Oct-16 05:00N 30°48' W 013°10'1222.4
2017-Oct-16 04:29N 30°56' W 012°59'23822.2
2017-Oct-15 17:45N 33°36' W 009°30'922.0
2017-Oct-15 17:20N 33°42' W 009°22'1421.9
2017-Oct-15 16:43N 33°51' W 009°10'521.8
2017-Oct-15 16:30N 33°54' W 009°06'1221.8
2017-Oct-15 15:58N 34°02' W 008°55'1022.0
2017-Oct-15 15:31N 34°09' W 008°46'1522.0
2017-Oct-15 14:51N 34°18' W 008°33'5621.5
2017-Oct-15 12:14N 34°55' W 007°42'522.0
2017-Oct-15 12:00N 34°59' W 007°37'1122.1
2017-Oct-15 11:30N 35°06' W 007°27'1122.2
2017-Oct-15 11:01N 35°14' W 007°18'1122.2
2017-Oct-15 10:30N 35°22' W 007°08'1122.1
2017-Oct-15 09:59N 35°29' W 006°57'1322.2
2017-Oct-15 09:25N 35°37' W 006°45'1722.2
2017-Oct-15 08:40N 35°48' W 006°30'4420.8
2017-Oct-15 06:32N 35°58' W 005°36'022.3
2017-Oct-15 06:30N 35°58' W 005°36'17 0.4
2017-Oct-13 13:17N 36°05' W 005°16'5 4.5
2017-Oct-13 12:13N 36°08' W 005°21'0 0.0
2017-Oct-13 11:41N 36°08' W 005°21'0 0.0
2017-Oct-13 11:18N 36°08' W 005°21'0 0.0
2017-Oct-13 11:00N 36°08' W 005°21'0 0.0
2017-Oct-12 16:48N 36°08' W 005°21'0 0.0
2017-Oct-12 14:00N 36°08' W 005°21'0 0.0
2017-Oct-12 13:29N 36°08' W 005°21'  

Dump ship's entire track history